createdAt,value
2018-09-09T00:02:17.079Z,6.97
2018-09-09T00:04:45.796Z,6.77
2018-09-09T00:07:15.161Z,6.63
2018-09-09T00:09:47.736Z,7.50
2018-09-09T00:12:16.872Z,7.27
2018-09-09T00:14:45.466Z,6.63
2018-09-09T00:17:14.166Z,6.60
2018-09-09T00:19:42.883Z,6.90
2018-09-09T00:22:11.539Z,6.83
2018-09-09T00:24:40.185Z,7.80
2018-09-09T00:27:08.860Z,7.07
2018-09-09T00:29:37.606Z,6.43
2018-09-09T00:32:06.289Z,7.00
2018-09-09T00:34:34.935Z,7.20
2018-09-09T00:37:03.614Z,7.40
2018-09-09T00:39:32.276Z,7.30
2018-09-09T00:42:00.940Z,7.33
2018-09-09T00:44:29.625Z,6.92
2018-09-09T00:46:58.295Z,7.55
2018-09-09T00:49:32.185Z,7.50
2018-09-09T00:52:05.990Z,6.92
2018-09-09T00:54:34.722Z,7.00
2018-09-09T00:57:03.419Z,6.72
2018-09-09T00:59:32.088Z,6.57
2018-09-09T01:02:00.740Z,7.15
2018-09-09T01:04:29.451Z,6.90
2018-09-09T01:06:58.160Z,7.17
2018-09-09T01:09:33.571Z,7.12
2018-09-09T01:12:03.631Z,6.40
2018-09-09T01:14:32.733Z,6.87
2018-09-09T01:17:01.398Z,6.28
2018-09-09T01:19:30.031Z,6.63
2018-09-09T01:21:58.694Z,6.27
2018-09-09T01:24:27.430Z,6.30
2018-09-09T01:26:56.063Z,6.12
2018-09-09T01:29:24.785Z,6.50
2018-09-09T01:31:53.710Z,6.43
2018-09-09T01:34:22.469Z,6.90
2018-09-09T01:36:51.156Z,6.90
2018-09-09T01:39:19.833Z,7.87
2018-09-09T01:41:48.531Z,6.85
2018-09-09T01:44:17.168Z,6.30
2018-09-09T01:46:45.800Z,6.30
2018-09-09T01:49:14.469Z,7.70
2018-09-09T01:51:43.145Z,8.27
2018-09-09T01:54:11.763Z,6.70
2018-09-09T01:56:40.425Z,8.63
2018-09-09T01:59:09.078Z,8.47
2018-09-09T02:01:37.759Z,7.70
2018-09-09T02:04:06.393Z,7.07
2018-09-09T02:06:35.093Z,7.47
2018-09-09T02:09:04.361Z,7.00
2018-09-09T02:11:32.990Z,7.27
2018-09-09T02:14:01.666Z,6.70
2018-09-09T02:16:30.359Z,7.30
2018-09-09T02:18:59.054Z,6.92
2018-09-09T02:21:27.724Z,6.23
2018-09-09T02:23:56.417Z,7.25
2018-09-09T02:26:25.094Z,6.93
2018-09-09T02:28:53.891Z,7.00
2018-09-09T02:31:22.525Z,7.17
2018-09-09T02:33:51.223Z,6.10
2018-09-09T02:36:19.830Z,7.83
2018-09-09T02:38:48.530Z,7.67
2018-09-09T02:41:17.212Z,6.40
2018-09-09T02:43:45.905Z,6.67
2018-09-09T02:46:14.502Z,7.20
2018-09-09T02:48:43.668Z,6.97
2018-09-09T02:51:12.284Z,6.60
2018-09-09T02:53:40.993Z,6.93
2018-09-09T02:56:11.495Z,6.80
2018-09-09T02:58:40.184Z,6.53
2018-09-09T03:01:08.877Z,5.93
2018-09-09T03:03:37.652Z,5.90
2018-09-09T03:06:06.435Z,6.20
2018-09-09T03:08:35.091Z,6.40
2018-09-09T03:11:08.949Z,6.10
2018-09-09T03:13:37.623Z,7.13
2018-09-09T03:16:06.382Z,6.27
2018-09-09T03:18:35.038Z,6.10
2018-09-09T03:21:03.845Z,6.62
2018-09-09T03:23:32.550Z,6.77
2018-09-09T03:26:01.842Z,6.10
2018-09-09T03:28:31.133Z,6.47
2018-09-09T03:30:59.797Z,6.13
2018-09-09T03:33:28.475Z,6.23
2018-09-09T03:35:57.073Z,6.73
2018-09-09T03:38:25.718Z,6.27
2018-09-09T03:40:54.365Z,6.53
2018-09-09T03:43:23.110Z,6.37
2018-09-09T03:45:51.796Z,6.93
2018-09-09T03:48:20.444Z,6.30
2018-09-09T03:50:49.122Z,6.27
2018-09-09T03:53:17.764Z,6.53
2018-09-09T03:55:46.458Z,7.00
2018-09-09T03:58:16.074Z,6.67
2018-09-09T04:00:44.773Z,6.30
2018-09-09T04:03:13.411Z,6.10
2018-09-09T04:05:42.080Z,6.27
2018-09-09T04:08:10.709Z,5.63
2018-09-09T04:10:39.414Z,6.50
2018-09-09T04:13:08.074Z,6.13
2018-09-09T04:15:36.652Z,7.10
2018-09-09T04:18:05.474Z,5.90
2018-09-09T04:20:34.109Z,6.40
2018-09-09T04:23:02.790Z,5.87
2018-09-09T04:25:31.495Z,5.58
2018-09-09T04:28:00.119Z,6.63
2018-09-09T04:30:28.923Z,6.03
2018-09-09T04:32:57.610Z,6.25
2018-09-09T04:35:26.310Z,6.97
2018-09-09T04:37:54.951Z,6.63
2018-09-09T04:40:23.605Z,6.75
2018-09-09T04:42:52.268Z,5.67
2018-09-09T04:45:20.891Z,6.00
2018-09-09T04:47:49.538Z,5.63
2018-09-09T04:50:18.230Z,6.53
2018-09-09T04:52:46.849Z,6.40
2018-09-09T04:55:16.069Z,5.93
2018-09-09T04:57:44.758Z,5.73
2018-09-09T05:00:13.489Z,6.20
2018-09-09T05:02:42.125Z,5.87
2018-09-09T05:05:10.813Z,6.30
2018-09-09T05:07:39.542Z,7.07
2018-09-09T05:10:08.283Z,6.23
2018-09-09T05:12:36.908Z,5.80
2018-09-09T05:15:05.802Z,7.23
2018-09-09T05:17:34.730Z,7.03
2018-09-09T05:20:03.533Z,6.10
2018-09-09T05:22:32.257Z,5.70
2018-09-09T05:25:00.903Z,6.10
2018-09-09T05:27:29.657Z,5.90
2018-09-09T05:29:58.378Z,6.60
2018-09-09T05:32:27.093Z,5.92
2018-09-09T05:34:55.752Z,5.80
2018-09-09T05:37:24.429Z,5.37
2018-09-09T05:39:53.032Z,5.92
2018-09-09T05:42:21.745Z,6.27
2018-09-09T05:44:50.468Z,6.27
2018-09-09T05:47:19.117Z,5.73
2018-09-09T05:49:47.724Z,6.40
2018-09-09T05:52:16.465Z,6.13
2018-09-09T05:54:45.158Z,5.37
2018-09-09T05:57:13.868Z,6.70
2018-09-09T05:59:42.548Z,6.63
2018-09-09T06:02:11.289Z,5.60
2018-09-09T06:04:39.957Z,6.77
2018-09-09T06:07:08.768Z,6.37
2018-09-09T06:09:37.484Z,6.00
2018-09-09T06:12:06.207Z,6.33
2018-09-09T06:14:34.948Z,6.30
2018-09-09T06:17:03.638Z,6.00
2018-09-09T06:19:32.254Z,6.30
2018-09-09T06:22:00.928Z,5.80
2018-09-09T06:24:29.680Z,6.97
2018-09-09T06:26:58.483Z,6.50
2018-09-09T06:29:27.133Z,6.55
2018-09-09T06:31:55.827Z,6.22
2018-09-09T06:34:24.525Z,6.72
2018-09-09T06:36:53.196Z,6.08
2018-09-09T06:39:21.831Z,6.53
2018-09-09T06:41:50.547Z,6.22
2018-09-09T06:44:19.220Z,6.60
2018-09-09T06:46:47.888Z,5.83
2018-09-09T06:49:16.543Z,6.63
2018-09-09T06:51:45.208Z,6.70
2018-09-09T06:54:13.842Z,6.63
2018-09-09T06:56:42.517Z,6.60
2018-09-09T06:59:11.071Z,6.23
2018-09-09T07:01:39.628Z,6.87
2018-09-09T07:04:08.288Z,6.63
2018-09-09T07:06:36.878Z,7.20
2018-09-09T07:09:06.865Z,7.17
2018-09-09T07:11:35.584Z,6.40
2018-09-09T07:14:04.255Z,6.00
2018-09-09T07:16:33.029Z,6.70
2018-09-09T07:19:01.987Z,6.60
2018-09-09T07:21:30.692Z,6.77
2018-09-09T07:23:59.404Z,7.07
2018-09-09T07:26:28.477Z,6.83
2018-09-09T07:28:57.335Z,6.92
2018-09-09T07:31:26.001Z,7.70
2018-09-09T07:33:54.626Z,7.25
2018-09-09T07:36:23.633Z,6.67
2018-09-09T07:38:52.233Z,6.00
2018-09-09T07:41:20.846Z,6.30
2018-09-09T07:43:49.435Z,7.00
2018-09-09T07:46:18.082Z,7.13
2018-09-09T07:48:46.693Z,7.13
2018-09-09T07:51:15.276Z,6.90
2018-09-09T07:53:43.942Z,6.57
2018-09-09T07:56:12.628Z,5.97
2018-09-09T07:58:41.283Z,6.73
2018-09-09T08:01:09.924Z,6.90
2018-09-09T08:03:38.525Z,6.77
2018-09-09T08:06:07.318Z,6.23
2018-09-09T08:08:35.960Z,7.03
2018-09-09T08:11:04.509Z,7.13
2018-09-09T08:13:33.146Z,6.43
2018-09-09T08:16:01.791Z,5.73
2018-09-09T08:18:30.489Z,5.20
2018-09-09T08:20:59.051Z,5.17
2018-09-09T08:23:27.877Z,5.00
2018-09-09T08:25:56.537Z,5.45
2018-09-09T08:28:25.669Z,5.03
2018-09-09T08:30:54.387Z,5.70
2018-09-09T08:33:23.067Z,5.60
2018-09-09T08:35:51.775Z,4.70
2018-09-09T08:38:20.474Z,4.73
2018-09-09T08:40:49.127Z,4.80
2018-09-09T08:43:17.838Z,4.60
2018-09-09T08:45:46.668Z,4.80
2018-09-09T08:48:15.302Z,4.60
2018-09-09T08:50:43.958Z,4.57
2018-09-09T08:53:12.678Z,4.70
2018-09-09T08:55:41.319Z,4.90
2018-09-09T08:58:09.991Z,4.93
2018-09-09T09:00:38.705Z,4.57
2018-09-09T09:03:07.491Z,5.13
2018-09-09T09:05:36.222Z,5.30
2018-09-09T09:08:05.017Z,5.63
2018-09-09T09:10:33.648Z,4.37
2018-09-09T09:13:02.338Z,5.27
2018-09-09T09:15:31.028Z,4.90
2018-09-09T09:17:59.753Z,5.00
2018-09-09T09:20:28.647Z,5.03
2018-09-09T09:22:57.402Z,5.13
2018-09-09T09:25:26.053Z,3.77
2018-09-09T09:27:54.748Z,3.50
2018-09-09T09:30:23.497Z,4.27
2018-09-09T09:32:52.233Z,3.93
2018-09-09T09:35:21.974Z,4.00
2018-09-09T09:37:50.634Z,3.40
2018-09-09T09:40:19.540Z,4.20
2018-09-09T09:42:49.284Z,4.00
2018-09-09T09:45:18.768Z,3.60
2018-09-09T09:47:47.529Z,3.83
2018-09-09T09:50:17.048Z,3.17
2018-09-09T09:52:47.092Z,3.53
2018-09-09T09:55:16.033Z,3.40
2018-09-09T09:57:44.867Z,2.90
2018-09-09T10:00:18.792Z,2.80
2018-09-09T10:02:48.272Z,2.83
2018-09-09T10:05:16.929Z,2.90
2018-09-09T10:07:45.648Z,2.80
2018-09-09T10:10:14.722Z,2.80
2018-09-09T10:12:43.622Z,3.20
2018-09-09T10:15:12.619Z,2.70
2018-09-09T10:17:41.525Z,2.60
2018-09-09T10:20:10.317Z,3.00
2018-09-09T10:22:39.165Z,2.73
2018-09-09T10:25:07.952Z,2.80
2018-09-09T10:27:36.807Z,2.70
2018-09-09T10:30:05.810Z,2.53
2018-09-09T10:32:35.268Z,2.83
2018-09-09T10:35:04.137Z,2.80
2018-09-09T10:37:33.212Z,2.50
2018-09-09T10:40:02.173Z,2.30
2018-09-09T10:42:31.078Z,2.80
2018-09-09T10:44:59.894Z,3.00
2018-09-09T10:47:28.853Z,2.90
2018-09-09T10:49:57.916Z,2.75
2018-09-09T10:52:26.665Z,2.90
2018-09-09T10:54:55.564Z,3.03
2018-09-09T10:57:24.363Z,3.50
2018-09-09T10:59:53.259Z,2.60
2018-09-09T11:02:22.084Z,2.70
2018-09-09T11:04:51.500Z,2.67
2018-09-09T11:07:20.572Z,2.53
2018-09-09T11:09:49.335Z,2.80
2018-09-09T11:12:18.820Z,3.00
2018-09-09T11:14:47.574Z,2.70
2018-09-09T11:17:17.254Z,2.95
2018-09-09T11:19:46.175Z,3.20
2018-09-09T11:22:15.743Z,2.50
2018-09-09T11:24:44.727Z,2.63
2018-09-09T11:27:13.476Z,2.57
2018-09-09T11:29:42.424Z,2.40
2018-09-09T11:32:11.388Z,2.47
2018-09-09T11:34:40.644Z,2.73
2018-09-09T11:37:12.518Z,2.77
2018-09-09T11:39:41.885Z,2.33
2018-09-09T11:42:11.442Z,2.60
2018-09-09T11:44:40.154Z,2.70
2018-09-09T11:47:08.918Z,3.30
2018-09-09T11:49:37.774Z,2.93
2018-09-09T11:52:06.514Z,2.43
2018-09-09T11:54:35.689Z,3.13
2018-09-09T11:57:05.075Z,3.47
2018-09-09T11:59:33.991Z,2.20
2018-09-09T12:02:03.101Z,2.03
2018-09-09T12:04:32.469Z,1.97
2018-09-09T12:07:01.658Z,1.87
2018-09-09T12:09:30.673Z,1.60
2018-09-09T12:12:00.162Z,2.17
2018-09-09T12:14:29.047Z,2.00
2018-09-09T12:16:57.883Z,1.53
2018-09-09T12:19:26.797Z,1.87
2018-09-09T12:21:55.786Z,1.87
2018-09-09T12:24:24.659Z,1.60
2018-09-09T12:26:53.637Z,1.87
2018-09-09T12:29:23.473Z,2.00
2018-09-09T12:31:52.222Z,1.80
2018-09-09T12:34:21.687Z,1.90
2018-09-09T12:36:50.524Z,1.57
2018-09-09T12:39:19.269Z,1.70
2018-09-09T12:41:48.169Z,1.50
2018-09-09T12:44:22.047Z,1.97
2018-09-09T12:46:55.913Z,2.03
2018-09-09T12:49:24.533Z,2.13
2018-09-09T12:51:53.313Z,2.60
2018-09-09T12:54:21.944Z,2.40
2018-09-09T12:56:50.637Z,2.37
2018-09-09T12:59:19.508Z,2.60
2018-09-09T13:01:48.380Z,2.83
2018-09-09T13:04:17.014Z,2.10
2018-09-09T13:06:45.748Z,1.83
2018-09-09T13:09:14.441Z,1.70
2018-09-09T13:11:43.167Z,1.77
2018-09-09T13:14:11.868Z,2.00
2018-09-09T13:16:40.604Z,1.80
2018-09-09T13:19:09.472Z,2.40
2018-09-09T13:21:38.238Z,2.10
2018-09-09T13:24:06.904Z,1.80
2018-09-09T13:26:35.578Z,1.47
2018-09-09T13:29:04.324Z,1.92
2018-09-09T13:31:33.110Z,1.80
2018-09-09T13:34:01.832Z,1.77
2018-09-09T13:36:30.532Z,1.70
2018-09-09T13:38:59.286Z,1.60
2018-09-09T13:41:28.049Z,1.77
2018-09-09T13:43:56.788Z,1.50
2018-09-09T13:46:25.482Z,1.70
2018-09-09T13:48:54.260Z,1.80
2018-09-09T13:51:22.926Z,1.90
2018-09-09T13:53:51.599Z,1.50
2018-09-09T13:56:20.339Z,1.90
2018-09-09T13:58:49.134Z,1.80
2018-09-09T14:01:17.832Z,1.50
2018-09-09T14:03:46.540Z,1.77
2018-09-09T14:06:15.236Z,1.63
2018-09-09T14:08:43.949Z,2.10
2018-09-09T14:11:12.729Z,2.10
2018-09-09T14:13:41.374Z,1.70
2018-09-09T14:16:10.142Z,1.60
2018-09-09T14:18:38.817Z,1.73
2018-09-09T14:21:07.763Z,1.73
2018-09-09T14:23:36.521Z,1.60
2018-09-09T14:26:05.207Z,2.00
2018-09-09T14:28:33.864Z,2.50
2018-09-09T14:31:02.778Z,1.90
2018-09-09T14:33:31.452Z,2.07
2018-09-09T14:36:00.142Z,2.30
2018-09-09T14:38:28.800Z,2.50
2018-09-09T14:40:57.497Z,2.13
2018-09-09T14:43:26.137Z,1.90
2018-09-09T14:45:54.833Z,1.77
2018-09-09T14:48:23.519Z,1.73
2018-09-09T14:50:52.212Z,1.83
2018-09-09T14:53:21.062Z,1.67
2018-09-09T14:55:50.034Z,2.27
2018-09-09T14:58:18.725Z,1.90
2018-09-09T15:00:47.407Z,1.60
2018-09-09T15:03:16.155Z,1.80
2018-09-09T15:05:44.892Z,1.50
2018-09-09T15:08:13.651Z,1.60
2018-09-09T15:10:42.318Z,1.67
2018-09-09T15:13:11.039Z,1.60
2018-09-09T15:15:39.717Z,1.60
2018-09-09T15:18:08.456Z,1.50
2018-09-09T15:20:37.092Z,1.53
2018-09-09T15:23:05.873Z,1.67
2018-09-09T15:25:34.538Z,1.57
2018-09-09T15:28:03.236Z,1.57
2018-09-09T15:30:31.944Z,1.30
2018-09-09T15:33:00.646Z,1.20
2018-09-09T15:35:29.362Z,1.27
2018-09-09T15:37:58.017Z,1.73
2018-09-09T15:40:26.778Z,1.60
2018-09-09T15:42:55.528Z,1.27
2018-09-09T15:45:24.261Z,1.77
2018-09-09T15:47:52.990Z,2.00
2018-09-09T15:50:21.763Z,2.60
2018-09-09T15:52:50.723Z,1.87
2018-09-09T15:55:19.433Z,1.90
2018-09-09T15:57:48.089Z,2.30
2018-09-09T16:00:16.894Z,2.40
2018-09-09T16:02:45.588Z,2.73
2018-09-09T16:05:14.286Z,2.67
2018-09-09T16:07:43.002Z,2.37
2018-09-09T16:10:11.739Z,2.00
2018-09-09T16:12:40.505Z,1.90
2018-09-09T16:15:09.143Z,1.90
2018-09-09T16:17:37.793Z,2.27
2018-09-09T16:20:07.422Z,2.30
2018-09-09T16:22:36.113Z,1.80
2018-09-09T16:25:04.884Z,2.27
2018-09-09T16:27:33.593Z,2.10
2018-09-09T16:30:02.336Z,2.20
2018-09-09T16:32:31.031Z,1.83
2018-09-09T16:34:59.700Z,2.13
2018-09-09T16:37:28.391Z,1.77
2018-09-09T16:39:57.060Z,2.17
2018-09-09T16:42:25.821Z,1.90
2018-09-09T16:44:54.564Z,3.77
2018-09-09T16:47:23.217Z,1.63
2018-09-09T16:49:51.944Z,2.10
2018-09-09T16:52:21.310Z,2.07
2018-09-09T16:54:50.018Z,1.50
2018-09-09T16:57:18.744Z,1.90
2018-09-09T16:59:47.459Z,1.87
2018-09-09T17:02:16.220Z,1.90
2018-09-09T17:04:45.017Z,1.57
2018-09-09T17:07:13.855Z,1.70
2018-09-09T17:09:42.615Z,1.80
2018-09-09T17:12:11.317Z,1.60
2018-09-09T17:14:40.048Z,1.57
2018-09-09T17:17:08.784Z,1.40
2018-09-09T17:19:37.472Z,1.87
2018-09-09T17:22:06.311Z,1.90
2018-09-09T17:24:34.991Z,1.62
2018-09-09T17:27:03.694Z,2.15
2018-09-09T17:29:32.438Z,1.60
2018-09-09T17:32:01.147Z,1.70
2018-09-09T17:34:29.892Z,1.90
2018-09-09T17:36:58.596Z,1.70
2018-09-09T17:39:27.303Z,1.50
2018-09-09T17:41:56.090Z,2.17
2018-09-09T17:44:24.874Z,2.00
2018-09-09T17:46:53.601Z,2.60
2018-09-09T17:49:22.430Z,2.80
2018-09-09T17:51:51.100Z,2.30
2018-09-09T17:54:19.811Z,2.30
2018-09-09T17:56:48.501Z,2.07
2018-09-09T17:59:17.322Z,2.08
2018-09-09T18:01:46.098Z,2.10
2018-09-09T18:04:14.912Z,2.00
2018-09-09T18:06:43.588Z,1.93
2018-09-09T18:09:12.252Z,2.20
2018-09-09T18:11:41.039Z,2.87
2018-09-09T18:14:09.647Z,2.70
2018-09-09T18:16:38.252Z,2.33
2018-09-09T18:19:06.998Z,2.37
2018-09-09T18:21:35.751Z,2.60
2018-09-09T18:24:04.447Z,2.60
2018-09-09T18:26:33.771Z,2.50
2018-09-09T18:29:02.645Z,3.23
2018-09-09T18:31:31.351Z,3.10
2018-09-09T18:34:00.082Z,2.75
2018-09-09T18:36:28.859Z,2.45
2018-09-09T18:38:57.632Z,2.83
2018-09-09T18:41:26.336Z,2.97
2018-09-09T18:43:55.316Z,3.20
2018-09-09T18:46:23.976Z,2.90
2018-09-09T18:48:52.948Z,3.27
2018-09-09T18:51:21.662Z,2.90
2018-09-09T18:53:50.301Z,2.70
2018-09-09T18:56:18.989Z,2.87
2018-09-09T18:58:47.707Z,2.73
2018-09-09T19:01:16.343Z,2.63
2018-09-09T19:03:45.007Z,2.33
2018-09-09T19:06:13.774Z,3.20
2018-09-09T19:08:42.424Z,2.80
2018-09-09T19:11:11.121Z,3.12
2018-09-09T19:13:39.858Z,3.20
2018-09-09T19:16:08.682Z,2.83
2018-09-09T19:18:37.363Z,3.07
2018-09-09T19:21:06.063Z,3.60
2018-09-09T19:23:34.771Z,2.90
2018-09-09T19:26:03.497Z,3.10
2018-09-09T19:28:32.222Z,3.00
2018-09-09T19:31:00.958Z,3.03
2018-09-09T19:33:29.725Z,3.00
2018-09-09T19:35:58.411Z,3.05
2018-09-09T19:38:27.176Z,3.50
2018-09-09T19:40:55.932Z,3.10
2018-09-09T19:43:24.598Z,3.40
2018-09-09T19:45:53.865Z,3.10
2018-09-09T19:48:22.581Z,3.20
2018-09-09T19:50:51.320Z,3.10
2018-09-09T19:53:20.087Z,3.10
2018-09-09T19:55:48.782Z,3.30
2018-09-09T19:58:17.529Z,3.50
2018-09-09T20:00:46.256Z,3.23
2018-09-09T20:03:15.011Z,2.80
2018-09-09T20:05:43.690Z,3.03
2018-09-09T20:08:12.467Z,3.43
2018-09-09T20:10:41.163Z,3.27
2018-09-09T20:13:09.806Z,3.70
2018-09-09T20:15:38.450Z,3.37
2018-09-09T20:18:07.546Z,3.73
2018-09-09T20:20:36.279Z,3.17
2018-09-09T20:23:04.938Z,3.10
2018-09-09T20:25:33.563Z,3.77
2018-09-09T20:28:02.227Z,3.30
2018-09-09T20:30:30.971Z,3.30
2018-09-09T20:32:59.640Z,3.70
2018-09-09T20:35:28.336Z,3.73
2018-09-09T20:37:57.008Z,3.30
2018-09-09T20:40:25.847Z,3.97
2018-09-09T20:42:54.561Z,3.93
2018-09-09T20:45:23.765Z,3.37
2018-09-09T20:47:52.462Z,3.50
2018-09-09T20:50:21.166Z,3.53
2018-09-09T20:52:49.809Z,3.73
2018-09-09T20:55:18.707Z,3.90
2018-09-09T20:57:47.357Z,3.90
2018-09-09T21:00:16.013Z,3.50
2018-09-09T21:02:44.725Z,3.93
2018-09-09T21:05:13.378Z,3.60
2018-09-09T21:07:42.047Z,3.17
2018-09-09T21:10:10.781Z,3.80
2018-09-09T21:12:39.476Z,3.52
2018-09-09T21:15:08.474Z,4.20
2018-09-09T21:17:37.155Z,3.87
2018-09-09T21:20:05.922Z,4.50
2018-09-09T21:22:34.624Z,3.80
2018-09-09T21:25:03.401Z,3.85
2018-09-09T21:27:32.122Z,3.95
2018-09-09T21:30:01.405Z,3.67
2018-09-09T21:32:30.155Z,3.50
2018-09-09T21:34:58.893Z,3.47
2018-09-09T21:37:27.547Z,3.50
2018-09-09T21:39:56.198Z,4.17
2018-09-09T21:42:25.217Z,3.50
2018-09-09T21:44:53.895Z,3.60
2018-09-09T21:47:22.567Z,3.53
2018-09-09T21:49:51.206Z,3.30
2018-09-09T21:52:19.935Z,3.30
2018-09-09T21:54:48.691Z,3.20
2018-09-09T21:57:17.341Z,3.20
2018-09-09T21:59:45.986Z,3.73
2018-09-09T22:02:15.000Z,3.23
2018-09-09T22:04:43.687Z,2.83
2018-09-09T22:07:13.636Z,3.13
2018-09-09T22:09:43.690Z,3.33
2018-09-09T22:12:13.252Z,3.45
2018-09-09T22:14:42.677Z,3.30
2018-09-09T22:17:11.812Z,3.27
2018-09-09T22:19:40.740Z,3.40
2018-09-09T22:22:10.429Z,3.60
2018-09-09T22:24:39.120Z,2.73
2018-09-09T22:27:07.965Z,2.90
2018-09-09T22:29:36.741Z,3.17
2018-09-09T22:32:05.434Z,2.90
2018-09-09T22:34:34.375Z,4.03
2018-09-09T22:37:03.039Z,3.17
2018-09-09T22:39:31.733Z,3.10
2018-09-09T22:42:00.474Z,3.17
2018-09-09T22:44:29.166Z,2.90
2018-09-09T22:46:57.809Z,3.37
2018-09-09T22:49:26.669Z,3.40
2018-09-09T22:51:55.997Z,2.52
2018-09-09T22:54:24.699Z,2.77
2018-09-09T22:56:53.466Z,2.83
2018-09-09T22:59:22.190Z,3.10
2018-09-09T23:01:50.908Z,3.10
2018-09-09T23:04:19.631Z,2.80
2018-09-09T23:06:48.334Z,3.27
2018-09-09T23:09:17.005Z,2.80
2018-09-09T23:11:45.680Z,2.73
2018-09-09T23:14:14.481Z,2.87
2018-09-09T23:16:43.196Z,2.70
2018-09-09T23:19:11.890Z,2.97
2018-09-09T23:21:40.556Z,2.95
2018-09-09T23:24:09.221Z,3.03
2018-09-09T23:26:38.001Z,2.70
2018-09-09T23:29:06.765Z,3.40
2018-09-09T23:31:35.456Z,2.87
2018-09-09T23:34:04.224Z,2.90
2018-09-09T23:36:32.865Z,3.17
2018-09-09T23:39:01.610Z,2.80
2018-09-09T23:41:30.597Z,2.40
2018-09-09T23:43:59.359Z,2.60
2018-09-09T23:46:28.066Z,2.90
2018-09-09T23:48:56.886Z,2.90
2018-09-09T23:51:25.644Z,3.07
2018-09-09T23:53:54.302Z,3.10
2018-09-09T23:56:23.065Z,3.00
2018-09-09T23:58:51.811Z,2.90
